Airfield :
LOGIN :

Register | Disclaimer

   EN    FR    IT 

 










Legend :    VFR   Marginal VFR   IFR   Intensive IFR   Very Intensive IFR
Visi :
Ceiling :
>= 8 km
>= 3000ft
5 to 8 km
1000 to 3000 ft
1500m to 5 km
500 to 1000 ft
800 to 1500m
200 to 500 ft
< 800m
< 200 ft
Symbols :   Thunderstorms  Fog  Heavy snow  Heavy precipitations  Wind > 20 kt
SIGMETs :     Misc.  Thunderstorms  Icing  Turbulence  Mountain Waves  Volcanic Ashes







- Airport Elevation : 2945 ft
- IATA code : RGS


LEBG - Burgos

CURRENT METAR :
  • 241330Z 04016KT 9999 FEW027 19/10 Q1029

EXPIRED METARs :
  • 241300Z 04016KT 9999 SCT027 19/10 Q1029
  • 241230Z 04015KT 350V080 9999 SCT027 19/11 Q1030
  • 241200Z 02015KT 9999 SCT027 18/11 Q1030
  • 241130Z 06014KT 010V090 9999 SCT023 18/12 Q1030
  • 241100Z 04013KT 9999 BKN016 16/12 Q1031

TAF TAF LEBG
Valid from the 24 at 12:00 until the 24 at 21:00 UTC


241100Z 2412/2421 04014KT 9999 SCT012
No reported NOTAMs for that airfield.



MET'MAP, your aeronautical weather chart ! - Copyright ORBIFLY December 2007 - Disclaimer

ORBIFLY MET'MAP TEAM :

Programming & Development : Alexandra Zaïnal
Concept & Development : Baudouin d'Aumeries
Co-Development & Prog : Marc-Olivier Méhu
Technical & hardware support : Manuel Goepfert

Contact : metmap@orbifly.com




SOURCES & CREDITS :

   NOAA